Time;durP1;ratioP1;P1;durP2;ratioP2;P2;SDS_P1;SDS_P2;PMS_P1;PMS_P2;Temp;Humidity;BMP_temperature;BMP_pressure;BME280_temperature;BME280_humidity;BME280_pressure;Samples;Min_cycle;Max_cycle;Signal;HPM_P1;HPM_P2
2023/05/06 00:00:05;;;;;;;8.63;4.00;;;14.40;99.90;;;14.65;100.00;101063.44;5182749;28;20518;-72
2023/05/06 00:02:44;;;;;;;8.07;3.80;;;14.40;99.90;;;14.61;100.00;101061.59;5173332;28;20582;-71
2023/05/06 00:05:17;;;;;;;8.32;4.30;;;14.30;99.90;;;14.56;100.00;101063.22;5182261;28;20045;-71
2023/05/06 00:07:50;;;;;;;7.57;4.07;;;14.30;99.90;;;14.53;100.00;101060.53;5181800;28;20045;-70
2023/05/06 00:10:23;;;;;;;8.52;4.10;;;14.30;99.90;;;14.46;100.00;101056.88;5182215;28;20061;-72
2023/05/06 00:12:55;;;;;;;8.30;4.28;;;14.30;99.90;;;14.43;100.00;101046.28;5164182;28;20441;-71
2023/05/06 00:15:27;;;;;;;8.68;4.43;;;14.20;99.90;;;14.40;100.00;101041.84;5181471;28;20042;-72
2023/05/06 00:18:00;;;;;;;8.48;4.32;;;14.20;99.90;;;14.39;100.00;101040.06;5174178;28;20050;-71
2023/05/06 00:20:33;;;;;;;8.95;4.28;;;14.20;99.90;;;14.38;100.00;101034.78;5163142;28;20053;-73
2023/05/06 00:23:07;;;;;;;8.60;4.38;;;14.10;99.90;;;14.35;100.00;101032.13;5182277;28;20485;-72
2023/05/06 00:25:39;;;;;;;9.20;4.45;;;14.10;99.90;;;14.31;100.00;101027.63;5182502;28;20061;-72
2023/05/06 00:28:11;;;;;;;8.73;4.35;;;14.10;99.90;;;14.28;100.00;101027.56;5182167;28;20050;-72
2023/05/06 00:30:45;;;;;;;7.43;3.80;;;14.10;99.90;;;14.24;100.00;101034.47;5148041;28;20513;-72
2023/05/06 00:33:17;;;;;;;8.65;4.05;;;14.00;99.90;;;14.19;100.00;101025.63;5164580;28;20048;-73
2023/05/06 00:35:50;;;;;;;7.38;3.70;;;14.00;99.90;;;14.17;100.00;101024.69;5179947;28;20050;-71
2023/05/06 00:38:27;;;;;;;9.82;4.70;;;14.00;99.90;;;14.18;100.00;101022.97;5181857;28;20054;-72
2023/05/06 00:41:00;;;;;;;8.00;4.13;;;14.00;99.90;;;14.15;100.00;101023.78;5167680;28;20050;-71
2023/05/06 00:43:32;;;;;;;7.85;3.92;;;13.90;99.90;;;14.14;100.00;101022.00;5167005;28;20424;-71
2023/05/06 00:46:07;;;;;;;8.75;4.15;;;13.90;99.90;;;14.13;100.00;101021.09;5185589;28;20053;-71
2023/05/06 00:48:40;;;;;;;7.22;3.95;;;13.90;99.90;;;14.12;100.00;101029.81;5184445;28;20053;-71
2023/05/06 00:51:13;;;;;;;8.10;4.00;;;13.90;99.90;;;14.11;100.00;101024.56;5177271;28;20060;-70
2023/05/06 00:53:48;;;;;;;8.68;4.22;;;13.90;99.90;;;14.10;100.00;101028.91;5185756;28;20049;-72
2023/05/06 00:56:20;;;;;;;8.32;4.47;;;13.90;99.90;;;14.09;100.00;101039.38;5168066;28;20050;-71
2023/05/06 00:58:54;;;;;;;8.43;4.38;;;13.90;99.90;;;14.08;100.00;101027.09;5163130;28;20133;-73
2023/05/06 01:01:27;;;;;;;8.88;4.93;;;13.90;99.90;;;14.04;100.00;101030.50;5181124;28;20413;-71
2023/05/06 01:04:03;;;;;;;8.50;4.20;;;13.90;99.90;;;13.98;100.00;101026.00;5183966;28;20069;-71
2023/05/06 01:06:43;;;;;;;10.27;5.03;;;13.90;99.90;;;13.95;100.00;101022.38;5167555;28;20053;-71
2023/05/06 01:09:26;;;;;;;8.55;4.65;;;13.80;99.90;;;13.91;100.00;101033.66;5184943;28;20041;-71
2023/05/06 01:12:07;;;;;;;8.60;4.65;;;13.70;99.90;;;13.84;100.00;101037.88;5167258;28;20141;-71
2023/05/06 01:14:49;;;;;;;8.48;4.45;;;13.70;99.90;;;13.77;100.00;101031.59;5166837;28;20123;-71
2023/05/06 01:17:26;;;;;;;8.48;4.10;;;13.60;99.90;;;13.69;100.00;101030.50;5167553;28;20053;-72
2023/05/06 01:20:03;;;;;;;9.10;4.57;;;13.50;99.90;;;13.63;100.00;101032.06;5167299;28;20054;-72
2023/05/06 01:22:37;;;;;;;7.03;3.55;;;13.50;99.90;;;13.57;100.00;101019.72;5184208;28;20104;-71
2023/05/06 01:25:19;;;;;;;6.72;3.35;;;13.40;99.90;;;13.52;100.00;101023.94;5184849;28;20053;-71
2023/05/06 01:27:51;;;;;;;6.43;3.35;;;13.30;99.90;;;13.47;100.00;101023.81;5184535;28;20038;-70
2023/05/06 01:30:31;;;;;;;7.40;3.90;;;13.30;99.90;;;13.46;100.00;101026.38;5184618;28;20038;-71
2023/05/06 01:33:10;;;;;;;6.60;3.50;;;13.30;99.90;;;13.44;100.00;101028.97;5177485;28;20048;-72
2023/05/06 01:35:55;;;;;;;6.15;3.15;;;13.20;99.90;;;13.42;100.00;101037.63;5166752;28;20089;-73
2023/05/06 01:38:35;;;;;;;7.18;3.97;;;13.30;99.90;;;13.39;100.00;101037.53;5167091;28;20073;-71
2023/05/06 01:41:14;;;;;;;7.20;3.85;;;13.20;99.90;;;13.36;100.00;101040.06;5176312;28;20045;-71
2023/05/06 01:43:49;;;;;;;7.13;3.97;;;13.20;99.90;;;13.30;100.00;101041.69;5184089;28;20099;-71
2023/05/06 01:46:24;;;;;;;7.10;3.67;;;13.10;99.90;;;13.24;100.00;101038.03;5167247;28;20124;-71
2023/05/06 01:48:58;;;;;;;;;;;13.10;99.90;;;13.17;100.00;101041.25;5166880;28;20048;-71
2023/05/06 01:51:34;;;;;;;6.97;3.72;;;13.00;99.90;;;13.14;100.00;101042.06;5183411;28;19925;-71
2023/05/06 01:54:07;;;;;;;6.82;3.72;;;13.00;99.90;;;13.11;100.00;101030.63;5177479;28;20446;-71
2023/05/06 01:56:40;;;;;;;7.82;4.03;;;12.90;99.90;;;13.09;100.00;101032.28;5184176;28;20052;-71
2023/05/06 01:59:13;;;;;;;7.60;3.72;;;12.90;99.90;;;13.09;100.00;101034.91;5166699;28;20088;-71
2023/05/06 02:01:46;;;;;;;6.95;3.60;;;12.90;99.90;;;13.07;100.00;101044.47;5166155;28;20092;-71
2023/05/06 02:04:18;;;;;;;7.80;3.80;;;12.90;99.90;;;13.04;100.00;101034.81;5166524;28;20410;-71
2023/05/06 02:06:55;;;;;;;7.25;3.75;;;12.90;99.90;;;13.01;100.00;101039.94;5165882;28;20554;-71
2023/05/06 02:09:29;;;;;;;7.90;4.00;;;12.80;99.90;;;12.99;100.00;101036.41;5166935;28;20482;-71
2023/05/06 02:12:10;;;;;;;7.93;4.30;;;12.90;99.90;;;12.98;100.00;101034.63;5159209;28;20042;-71
2023/05/06 02:14:43;;;;;;;7.63;3.85;;;12.80;99.90;;;12.98;100.00;101039.88;5184108;28;20042;-72
2023/05/06 02:17:15;;;;;;;7.60;3.92;;;12.80;99.90;;;12.96;100.00;101041.53;5165890;28;20144;-71
2023/05/06 02:19:48;;;;;;;6.88;3.58;;;12.80;99.90;;;12.94;100.00;101045.84;5165731;28;20061;-71
2023/05/06 02:22:20;;;;;;;6.45;3.53;;;12.80;99.90;;;12.93;100.00;101041.44;5165602;28;20104;-72
2023/05/06 02:24:53;;;;;;;7.93;4.18;;;12.80;99.90;;;12.93;100.00;101036.22;5182224;28;20053;-71
2023/05/06 02:27:26;;;;;;;6.38;3.60;;;12.80;99.90;;;12.90;100.00;101034.38;5166426;28;20053;-70
2023/05/06 02:30:01;;;;;;;6.18;3.35;;;12.70;99.90;;;12.87;100.00;101041.28;5183031;28;20084;-72
2023/05/06 02:32:35;;;;;;;6.20;3.25;;;12.70;99.90;;;12.84;100.00;101039.44;5183075;28;20042;-70
2023/05/06 02:35:09;;;;;;;6.40;3.53;;;12.70;99.90;;;12.80;100.00;101041.94;5166218;28;20042;-70
2023/05/06 02:37:42;;;;;;;5.47;3.28;;;12.60;99.90;;;12.77;100.00;101045.31;5183175;28;20506;-71
2023/05/06 02:40:15;;;;;;;6.10;3.53;;;12.60;99.90;;;12.76;100.00;101033.97;5183539;28;20053;-72
2023/05/06 02:42:48;;;;;;;6.20;3.03;;;12.60;99.90;;;12.74;100.00;101040.91;5165262;28;20507;-71
2023/05/06 02:45:23;;;;;;;4.93;2.75;;;12.60;99.90;;;12.72;100.00;101034.75;5165315;28;20046;-70
2023/05/06 02:47:55;;;;;;;5.45;3.13;;;12.60;99.90;;;12.68;100.00;101027.63;5165434;28;20065;-71
2023/05/06 02:50:27;;;;;;;6.05;3.40;;;12.60;99.90;;;12.64;100.00;101022.25;5165583;28;20140;-72
2023/05/06 02:53:09;;;;;;;5.35;3.08;;;12.50;99.90;;;12.61;100.00;101020.47;5182478;28;20065;-72
2023/05/06 02:55:41;;;;;;;4.57;2.80;;;12.50;99.90;;;12.59;100.00;101024.75;5182170;28;20046;-71
2023/05/06 02:58:15;;;;;;;5.95;3.00;;;12.40;99.90;;;12.56;100.00;101031.63;5155214;28;20039;-70
2023/05/06 03:00:47;;;;;;;5.80;2.97;;;12.40;99.90;;;12.54;100.00;101031.56;5181219;28;20042;-72
2023/05/06 03:03:19;;;;;;;6.30;3.50;;;12.40;99.90;;;12.54;100.00;101028.97;5176147;28;20046;-72
2023/05/06 03:05:51;;;;;;;4.85;2.83;;;12.40;99.90;;;12.54;100.00;101031.56;5181239;28;20053;-71
2023/05/06 03:08:24;;;;;;;4.97;2.63;;;12.40;99.90;;;12.54;100.00;101021.13;5182753;28;20096;-72
2023/05/06 03:10:57;;;;;;;5.28;2.92;;;12.40;99.90;;;12.53;100.00;101034.16;5181189;28;20033;-71
2023/05/06 03:13:30;;;;;;;4.95;2.90;;;12.30;99.90;;;12.50;100.00;101029.69;5164994;28;20140;-72
2023/05/06 03:16:03;;;;;;;5.28;3.10;;;12.40;99.90;;;12.47;100.00;101034.84;5164697;28;20399;-72
2023/05/06 03:18:36;;;;;;;5.03;2.67;;;12.30;99.90;;;12.48;100.00;101034.88;5182817;28;20046;-72
2023/05/06 03:21:09;;;;;;;4.60;3.00;;;12.30;99.90;;;12.45;100.00;101034.81;5165429;28;20046;-71
2023/05/06 03:23:43;;;;;;;5.13;2.72;;;12.30;99.90;;;12.40;100.00;101033.78;5165222;28;20129;-71
2023/05/06 03:26:16;;;;;;;5.22;2.78;;;12.30;99.90;;;12.34;100.00;101024.84;5165276;28;20149;-71
2023/05/06 03:28:50;;;;;;;6.13;3.33;;;12.20;99.90;;;12.30;100.00;101031.69;5174013;28;20120;-71
2023/05/06 03:31:25;;;;;;;5.88;2.92;;;12.20;99.90;;;12.25;100.00;101027.16;5164793;28;20050;-72
2023/05/06 03:33:58;;;;;;;5.32;2.85;;;12.10;99.90;;;12.21;100.00;101027.06;5164747;28;20511;-71
2023/05/06 03:36:30;;;;;;;5.10;2.72;;;12.10;99.90;;;12.21;100.00;101032.28;5182619;28;20489;-72
2023/05/06 03:39:04;;;;;;;5.38;3.05;;;12.10;99.90;;;12.18;100.00;101029.56;5182346;28;20046;-72
2023/05/06 03:41:39;;;;;;;4.68;2.67;;;12.10;99.90;;;12.13;100.00;101022.44;5180657;28;20134;-71
2023/05/06 03:44:13;;;;;;;4.97;2.78;;;12.00;99.90;;;12.08;100.00;101029.25;5165534;28;20042;-72
2023/05/06 03:46:46;;;;;;;4.72;2.80;;;12.00;99.90;;;12.04;100.00;101032.59;5165000;28;20096;-72
2023/05/06 03:49:19;;;;;;;5.47;2.90;;;11.90;99.90;;;12.01;100.00;101033.38;5182718;28;20125;-72
2023/05/06 03:51:53;;;;;;;4.82;2.60;;;11.90;99.90;;;11.99;100.00;101029.81;5164310;28;20049;-72
2023/05/06 03:54:27;;;;;;;3.90;2.50;;;11.90;99.90;;;11.99;100.00;101034.16;5181817;28;20532;-72
2023/05/06 03:57:01;;;;;;;4.75;2.83;;;11.80;99.90;;;11.98;100.00;101033.28;5164711;28;20096;-71
2023/05/06 03:59:35;;;;;;;4.10;2.60;;;11.80;99.90;;;11.97;100.00;101034.13;5165474;28;20042;-72
2023/05/06 04:02:10;;;;;;;4.72;2.63;;;11.80;99.90;;;11.95;100.00;101033.19;5173639;28;20048;-71
2023/05/06 04:04:43;;;;;;;4.72;2.67;;;11.80;99.90;;;11.90;100.00;101033.03;5178588;22;20137;-65
2023/05/06 04:07:15;;;;;;;4.47;2.50;;;11.80;99.90;;;11.87;100.00;101037.28;5175347;28;20129;-66
2023/05/06 04:09:47;;;;;;;5.35;2.65;;;11.80;99.90;;;11.85;100.00;101033.69;5179981;28;20614;-65
2023/05/06 04:12:19;;;;;;;4.15;2.63;;;11.70;99.90;;;11.84;100.00;101026.72;5174850;28;20548;-65
2023/05/06 04:14:54;;;;;;;4.75;2.60;;;11.70;99.90;;;11.87;100.00;101034.66;5176692;28;20402;-66
2023/05/06 04:17:27;;;;;;;3.97;2.35;;;11.70;99.90;;;11.89;100.00;101030.38;5177592;28;20045;-66
2023/05/06 04:20:00;;;;;;;5.55;2.78;;;11.70;99.90;;;11.91;100.00;101036.53;5173746;28;20100;-65
2023/05/06 04:22:32;;;;;;;4.50;2.72;;;11.80;99.90;;;11.92;100.00;101033.06;5165428;28;20046;-64
2023/05/06 04:25:05;;;;;;;4.82;2.83;;;11.80;99.90;;;11.92;100.00;101038.28;5178285;28;20063;-65
2023/05/06 04:27:41;;;;;;;4.95;2.78;;;11.80;99.90;;;11.92;100.00;101041.78;5185368;28;20461;-65
2023/05/06 04:30:16;;;;;;;5.05;2.95;;;11.80;99.90;;;11.90;100.00;101034.75;5176339;28;20053;-64
2023/05/06 04:32:48;;;;;;;5.32;2.63;;;11.80;99.90;;;11.90;100.00;101040.84;5176528;28;20048;-66
2023/05/06 04:35:22;;;;;;;5.07;2.72;;;11.80;99.90;;;11.88;100.00;101046.88;5174518;28;20034;-65
2023/05/06 04:37:57;;;;;;;5.28;2.90;;;11.80;99.90;;;11.86;100.00;101057.25;5184599;28;20045;-65
2023/05/06 04:40:37;;;;;;;5.55;3.00;;;11.80;99.90;;;11.94;100.00;101063.66;5185268;28;20045;-65
2023/05/06 04:43:10;;;;;;;5.47;2.97;;;11.80;99.90;;;12.09;100.00;101058.03;5177272;28;20418;-65
2023/05/06 04:45:48;;;;;;;4.75;2.85;;;12.00;99.90;;;12.20;100.00;101066.22;5176945;28;20068;-65
2023/05/06 04:48:22;;;;;;;5.03;2.78;;;12.10;99.90;;;12.26;100.00;101058.59;5179621;28;20092;-64
2023/05/06 04:50:55;;;;;;;6.68;3.47;;;12.20;99.90;;;12.30;100.00;101068.28;5166705;28;20050;-66
2023/05/06 04:53:28;;;;;;;5.68;2.75;;;12.20;99.90;;;12.32;100.00;101060.47;5177884;28;20116;-67
2023/05/06 04:56:01;;;;;;;5.63;2.88;;;12.30;99.90;;;12.32;100.00;101065.72;5171793;28;20043;-66
2023/05/06 04:58:33;;;;;;;4.78;2.90;;;12.30;99.90;;;12.32;100.00;101070.94;5173811;28;20402;-67
2023/05/06 05:01:09;;;;;;;4.18;2.53;;;12.20;99.90;;;12.31;100.00;101085.75;5182364;28;20042;-66
2023/05/06 05:04:00;;;;;;;4.78;2.63;;;12.20;99.90;;;12.33;100.00;101083.19;5181300;28;20123;-65
2023/05/06 05:06:33;;;;;;;4.57;2.60;;;12.20;99.90;;;12.36;100.00;101089.41;5185430;28;20379;-67
2023/05/06 05:09:06;;;;;;;5.03;3.03;;;12.30;99.90;;;12.43;100.00;101087.88;5184053;28;20040;-66
2023/05/06 05:11:40;;;;;;;5.95;3.42;;;12.30;99.90;;;12.57;100.00;101089.19;5171489;28;20046;-65
2023/05/06 05:14:12;;;;;;;7.85;4.22;;;12.40;99.90;;;12.81;100.00;101085.56;5188157;28;20404;-68
2023/05/06 05:16:46;;;;;;;8.77;4.80;;;12.60;99.90;;;13.08;100.00;101086.38;5167742;28;20042;-67
2023/05/06 05:19:21;;;;;;;9.13;4.95;;;12.80;99.90;;;13.37;100.00;101087.25;5189961;28;20046;-66
2023/05/06 05:21:53;;;;;;;10.27;4.72;;;13.10;99.90;;;13.62;100.00;101088.78;5167797;28;20050;-67
2023/05/06 05:24:28;;;;;;;8.23;4.13;;;13.30;99.90;;;13.85;100.00;101082.44;5187775;28;20124;-67
2023/05/06 05:27:02;;;;;;;7.55;4.15;;;13.50;99.90;;;14.06;100.00;101091.69;5170585;28;20081;-67
2023/05/06 05:29:35;;;;;;;7.43;4.00;;;13.70;99.90;;;14.27;100.00;101091.34;5157093;28;20066;-66
2023/05/06 05:32:12;;;;;;;6.85;3.63;;;13.90;99.90;;;14.45;100.00;101093.53;5183461;28;20057;-67
2023/05/06 05:34:45;;;;;;;7.35;3.83;;;14.10;99.90;;;14.61;100.00;101093.09;5185189;28;20495;-68
2023/05/06 05:37:17;;;;;;;7.50;3.90;;;14.30;99.90;;;14.86;100.00;101097.13;5188754;28;20050;-69
2023/05/06 05:39:50;;;;;;;8.00;4.05;;;14.50;99.90;;;15.08;100.00;101103.75;5191424;28;20155;-67
2023/05/06 05:42:26;;;;;;;5.75;3.60;;;14.70;99.90;;;15.21;100.00;101100.53;5196341;28;20049;-67
2023/05/06 05:44:58;;;;;;;5.82;3.63;;;14.90;99.90;;;15.26;100.00;101098.88;5165180;28;20066;-69
2023/05/06 05:47:33;;;;;;;5.75;3.40;;;15.00;99.90;;;15.41;100.00;101107.06;5184395;28;20049;-68
2023/05/06 05:50:09;;;;;;;6.22;3.70;;;15.20;99.90;;;15.57;100.00;101102.97;5167571;28;20128;-69
2023/05/06 05:52:42;;;;;;;6.57;3.38;;;15.30;99.90;;;15.76;100.00;101116.50;5165654;28;20048;-69
2023/05/06 05:55:16;;;;;;;5.80;3.38;;;15.40;99.90;;;15.90;100.00;101113.28;5178520;28;20422;-69
2023/05/06 05:57:50;;;;;;;5.38;3.38;;;15.50;99.90;;;16.09;100.00;101106.59;5180627;28;20128;-69
2023/05/06 06:00:25;;;;;;;7.05;3.80;;;15.70;99.90;;;16.20;100.00;101112.06;5185359;28;20042;-68
2023/05/06 06:03:05;;;;;;;5.88;3.40;;;15.90;99.90;;;16.30;100.00;101108.72;5181148;28;20031;-68
2023/05/06 06:05:38;;;;;;;5.75;3.33;;;15.90;99.90;;;16.48;100.00;101110.75;5184816;28;20034;-57
2023/05/06 06:08:10;;;;;;;5.60;3.03;;;16.10;99.90;;;16.65;100.00;101111.91;5162573;28;20053;-57
2023/05/06 06:10:42;;;;;;;5.45;3.20;;;16.20;99.90;;;16.75;100.00;101121.72;5162219;28;20054;-57
2023/05/06 06:13:20;;;;;;;5.07;3.10;;;16.30;99.90;;;16.87;100.00;101113.13;5160429;28;20049;-56
2023/05/06 06:15:52;;;;;;;5.40;3.13;;;16.40;99.90;;;16.99;100.00;101115.03;5166520;28;20108;-53
2023/05/06 06:18:26;;;;;;;5.55;3.05;;;16.50;99.90;;;17.17;100.00;101117.94;5165863;28;20040;-54
2023/05/06 06:20:59;;;;;;;4.97;3.33;;;16.60;99.90;;;17.30;100.00;101114.59;5181662;28;20144;-57
2023/05/06 06:23:31;;;;;;;5.30;3.22;;;16.80;99.90;;;17.46;100.00;101115.66;5183929;28;20556;-56
2023/05/06 06:26:03;;;;;;;5.05;3.00;;;16.90;99.90;;;17.53;100.00;101113.97;5183597;28;20046;-56
2023/05/06 06:28:38;;;;;;;4.93;3.28;;;17.00;99.90;;;17.67;100.00;101115.03;5183570;28;20046;-55
2023/05/06 06:31:10;;;;;;;4.68;2.97;;;17.10;99.90;;;17.77;100.00;101105.47;5203328;28;20516;-55
2023/05/06 06:33:43;;;;;;;5.18;2.83;;;17.20;99.90;;;17.88;100.00;101103.84;5188386;28;20051;-58
2023/05/06 06:36:16;;;;;;;5.38;3.03;;;17.40;99.90;;;18.05;100.00;101115.41;5176075;28;20046;-58
2023/05/06 06:38:49;;;;;;;6.78;3.85;;;17.50;99.90;;;18.21;100.00;101112.94;5170244;28;20038;-58
2023/05/06 06:41:22;;;;;;;6.10;2.95;;;17.70;99.90;;;18.43;100.00;101113.09;5163459;28;20034;-59
2023/05/06 06:43:57;;;;;;;3.22;2.70;;;17.80;99.90;;;18.62;100.00;101110.59;5163615;28;20069;-59
2023/05/06 06:46:31;;;;;;;4.47;2.67;;;18.00;99.90;;;18.73;100.00;101113.38;5163893;28;20042;-59
2023/05/06 06:49:05;;;;;;;3.55;2.53;;;18.10;99.90;;;18.84;100.00;101116.94;5171708;28;20060;-59
2023/05/06 06:51:37;;;;;;;4.45;2.20;;;18.20;99.90;;;18.99;100.00;101122.34;5163503;28;20504;-62
2023/05/06 06:54:09;;;;;;;4.95;2.55;;;18.40;99.90;;;19.12;100.00;101121.53;5171345;28;20133;-56
2023/05/06 06:56:41;;;;;;;3.95;2.22;;;18.50;99.90;;;19.29;100.00;101120.69;5163271;28;20034;-57
2023/05/06 06:59:13;;;;;;;4.10;2.38;;;18.70;99.90;;;19.45;100.00;101122.53;5171525;28;20687;-57
2023/05/06 07:01:46;;;;;;;3.47;2.33;;;18.80;99.90;;;19.63;100.00;101127.94;5171015;28;20634;-56
2023/05/06 07:04:19;;;;;;;4.05;2.58;;;19.00;99.90;;;19.80;99.11;101135.88;5183182;28;20123;-56
2023/05/06 07:06:51;;;;;;;5.03;2.78;;;19.10;99.90;;;19.96;96.69;101121.81;5166164;28;20046;-57
2023/05/06 07:09:23;;;;;;;4.45;2.45;;;19.30;99.90;;;20.07;96.74;101129.75;5163385;28;20046;-57
2023/05/06 07:11:55;;;;;;;3.30;2.60;;;19.40;99.90;;;20.16;97.13;101121.84;5164290;28;20053;-57
2023/05/06 07:14:27;;;;;;;4.95;2.40;;;19.50;99.90;;;20.29;96.53;101128.03;5177569;28;20046;-58
2023/05/06 07:17:00;;;;;;;4.07;2.42;;;19.70;99.90;;;20.40;95.25;101125.38;5172842;28;20108;-58
2023/05/06 07:19:33;;;;;;;3.10;2.10;;;19.70;99.90;;;20.51;93.48;101123.63;5180456;28;20046;-57
2023/05/06 07:22:05;;;;;;;3.78;2.13;;;19.90;99.90;;;20.66;93.53;101125.38;5181582;28;20055;-58
2023/05/06 07:24:37;;;;;;;3.35;2.20;;;20.00;99.90;;;20.76;92.65;101133.31;5182247;28;20069;-57
2023/05/06 07:27:10;;;;;;;3.17;2.10;;;20.10;99.90;;;20.89;92.58;101130.66;5174690;28;20042;-57
2023/05/06 07:29:42;;;;;;;2.92;1.90;;;20.20;99.90;;;21.01;91.32;101135.94;5182505;28;20056;-56
2023/05/06 07:32:14;;;;;;;4.53;2.10;;;20.30;99.90;;;21.14;90.08;101130.59;5179001;28;20037;-57
2023/05/06 07:34:48;;;;;;;2.63;1.90;;;20.40;99.90;;;21.22;89.93;101141.16;5179011;28;20093;-60
2023/05/06 07:37:20;;;;;;;1.83;1.50;;;20.40;99.90;;;21.37;88.77;101133.16;5162979;28;20053;-56
2023/05/06 07:39:52;;;;;;;2.67;1.70;;;20.60;99.90;;;21.46;86.22;101126.09;5178864;28;20038;-56
2023/05/06 07:42:24;;;;;;;2.13;1.67;;;20.70;99.90;;;21.57;87.16;101124.22;5177326;28;20049;-56
2023/05/06 07:44:56;;;;;;;1.77;1.33;;;20.80;99.90;;;21.65;87.81;101118.03;5170196;28;20046;-58
2023/05/06 07:47:32;;;;;;;2.75;1.45;;;20.80;99.90;;;21.72;87.61;101129.47;5167817;28;20050;-58
2023/05/06 07:50:06;;;;;;;2.45;1.23;;;21.00;99.90;;;21.79;87.20;101128.53;5170781;28;20043;-57
2023/05/06 07:52:38;;;;;;;1.63;1.40;;;21.00;99.90;;;21.94;87.57;101131.09;5170367;28;20061;-56
2023/05/06 07:55:10;;;;;;;2.30;1.20;;;21.10;99.90;;;22.12;87.50;101130.13;5170815;28;20416;-57
2023/05/06 07:57:42;;;;;;;2.42;1.60;;;21.20;99.90;;;22.36;87.07;101133.47;5168474;28;20151;-57
2023/05/06 08:00:15;;;;;;;2.17;1.35;;;21.40;99.90;;;22.55;85.45;101136.84;5162852;28;20042;-57
2023/05/06 08:02:50;;;;;;;3.45;1.42;;;21.50;99.60;;;22.76;84.90;101139.31;5178344;28;20137;-58
2023/05/06 08:05:23;;;;;;;1.65;1.10;;;21.70;99.30;;;23.08;85.94;101138.09;5166947;28;20038;-57
2023/05/06 08:07:55;;;;;;;2.03;1.20;;;21.90;99.80;;;23.43;83.47;101137.69;5181557;28;20120;-56
2023/05/06 08:10:28;;;;;;;1.15;0.93;;;22.10;99.20;;;23.82;80.11;101138.97;5172926;28;20043;-56
2023/05/06 08:13:00;;;;;;;1.80;1.13;;;22.30;97.80;;;24.24;78.10;101144.53;5172058;28;20418;-57
2023/05/06 08:15:32;;;;;;;2.30;1.00;;;22.50;97.00;;;24.62;77.16;101142.16;5181195;28;20034;-56
2023/05/06 08:18:04;;;;;;;1.13;0.90;;;22.70;96.30;;;25.21;74.90;101146.41;5173616;28;20046;-58
2023/05/06 08:20:39;;;;;;;0.80;0.80;;;23.00;95.60;;;25.85;72.81;101140.63;5180470;28;20426;-59
2023/05/06 08:23:11;;;;;;;1.90;1.10;;;23.30;94.60;;;26.57;70.72;101138.03;5172861;28;20065;-59
2023/05/06 08:25:43;;;;;;;1.20;0.95;;;23.80;93.50;;;27.17;69.20;101140.84;5182261;28;20050;-58
2023/05/06 08:28:15;;;;;;;1.17;1.00;;;24.20;92.60;;;27.76;68.21;101148.94;5173997;28;20506;-58
2023/05/06 08:30:50;;;;;;;1.80;1.00;;;24.50;92.20;;;28.72;65.61;101139.56;5182279;28;20045;-59
2023/05/06 08:33:22;;;;;;;1.42;0.90;;;25.00;91.20;;;29.12;63.67;101140.84;5174583;28;20046;-59
2023/05/06 08:35:58;;;;;;;2.78;0.80;;;25.40;88.60;;;28.84;62.37;101147.19;5164164;28;20053;-59
2023/05/06 08:38:30;;;;;;;0.98;0.88;;;25.50;84.40;;;28.38;63.49;101142.53;5170352;28;20049;-60
2023/05/06 08:41:09;;;;;;;0.70;0.70;;;25.50;84.10;;;28.82;62.93;101143.69;5170134;28;20104;-61
2023/05/06 08:43:41;;;;;;;3.78;0.88;;;25.70;83.60;;;29.88;60.15;101137.94;5169846;28;20056;-59
2023/05/06 08:46:14;;;;;;;1.80;0.80;;;26.40;80.50;;;31.07;56.46;101140.97;5165442;28;20041;-58
2023/05/06 08:48:46;;;;;;;1.30;0.60;;;27.30;76.10;;;32.07;54.65;101142.59;5174205;28;20042;-58
2023/05/06 08:51:21;;;;;;;0.77;0.70;;;28.10;73.40;;;32.84;52.32;101144.13;5173754;28;20414;-58
2023/05/06 08:53:55;;;;;;;1.73;0.90;;;28.80;70.30;;;33.22;50.39;101144.81;5173697;28;20114;-58
2023/05/06 08:56:30;;;;;;;1.73;0.75;;;29.20;66.70;;;33.47;50.39;101141.69;5175523;28;20042;-58
2023/05/06 08:59:02;;;;;;;0.73;0.60;;;29.50;66.10;;;33.39;49.24;101130.44;5164159;28;20050;-58
2023/05/06 09:01:35;;;;;;;1.15;0.80;;;29.60;63.70;;;33.42;49.67;101135.66;5178256;28;20046;-59
2023/05/06 09:04:07;;;;;;;1.52;0.70;;;29.70;63.80;;;33.33;49.25;101130.72;5183722;28;20064;-58
2023/05/06 09:06:41;;;;;;;2.15;0.98;;;29.70;62.90;;;33.18;49.58;101130.59;5179131;28;20057;-57
2023/05/06 09:09:14;;;;;;;0.88;0.80;;;29.70;62.70;;;32.03;49.57;101132.94;5166342;28;20034;-56
2023/05/06 09:11:52;;;;;;;1.10;0.77;;;29.10;61.40;;;31.65;50.49;101128.50;5172328;28;20042;-56
2023/05/06 09:14:24;;;;;;;1.75;0.70;;;28.90;62.30;;;31.31;51.78;101130.09;5172132;28;20065;-60
2023/05/06 09:16:56;;;;;;;0.80;0.80;;;28.70;62.90;;;31.06;51.94;101125.78;5167728;28;20526;-58
2023/05/06 09:19:29;;;;;;;1.92;0.90;;;28.70;63.10;;;30.59;53.46;101116.22;5167916;28;20613;-57
2023/05/06 09:22:03;;;;;;;0.70;0.70;;;28.50;63.60;;;29.88;53.59;101105.69;5176738;28;20041;-58
2023/05/06 09:24:36;;;;;;;1.88;0.68;;;28.10;63.40;;;29.03;54.92;101109.00;5177385;28;20053;-59
2023/05/06 09:27:08;;;;;;;1.08;0.70;;;27.70;63.80;;;28.30;57.37;101107.91;5177010;28;20096;-57
2023/05/06 09:29:59;;;;;;;0.68;0.52;;;27.20;65.40;;;27.76;57.51;101105.22;5170657;28;20038;-57
2023/05/06 09:32:32;;;;;;;1.77;1.02;;;26.80;65.70;;;27.35;57.94;101115.34;5171309;28;20050;-56
2023/05/06 09:35:05;;;;;;;1.00;0.70;;;26.40;65.80;;;27.02;60.04;101104.69;5166753;28;20049;-56
2023/05/06 09:37:39;;;;;;;1.00;0.60;;;26.10;67.40;;;26.81;59.70;101101.72;5185059;28;20507;-56
2023/05/06 09:40:12;;;;;;;;;;;25.90;67.40;;;26.61;60.11;101105.81;5165095;28;20054;-56
2023/05/06 09:42:45;;;;;;;1.10;0.68;;;25.70;67.90;;;26.54;60.56;101098.88;5171369;28;19921;-59
2023/05/06 09:45:17;;;;;;;1.20;0.60;;;25.50;68.20;;;26.50;60.77;101102.56;5168773;28;20041;-57
2023/05/06 09:47:51;;;;;;;0.50;0.50;;;25.50;68.70;;;26.47;60.45;101097.25;5176824;28;20096;-56
2023/05/06 09:50:24;;;;;;;;;;;25.50;68.40;;;26.45;62.39;101093.75;5181185;28;20050;-57
2023/05/06 09:52:58;;;;;;;1.10;0.52;;;25.40;70.30;;;26.48;62.04;101091.03;5181160;28;20417;-58
2023/05/06 09:55:31;;;;;;;1.67;0.40;;;25.40;69.90;;;26.40;61.60;101085.84;5169697;28;20376;-57
2023/05/06 09:58:05;;;;;;;1.15;0.50;;;25.40;69.80;;;26.31;60.19;101083.41;5173990;28;20054;-57
2023/05/06 10:00:37;;;;;;;1.63;0.60;;;25.30;68.80;;;26.33;60.80;101084.22;5170442;28;20050;-57
2023/05/06 10:03:10;;;;;;;0.52;0.40;;;25.30;69.20;;;26.38;62.40;101078.78;5174598;28;20046;-59
2023/05/06 10:05:43;;;;;;;0.93;0.63;;;25.30;70.60;;;26.32;60.34;101087.81;5209098;22;20041;-57
2023/05/06 10:08:20;;;;;;;0.90;0.80;;;25.30;69.00;;;26.16;60.80;101068.66;5196570;28;20051;-58
2023/05/06 10:10:53;;;;;;;1.15;0.52;;;25.20;68.90;;;26.03;62.04;101069.88;5204546;28;20034;-57
2023/05/06 10:13:25;;;;;;;0.68;0.60;;;25.10;70.00;;;25.95;62.64;101066.47;5196889;28;20568;-59
2023/05/06 10:16:00;;;;;;;1.00;0.55;;;25.00;70.70;;;25.90;61.98;101060.41;5179103;28;20484;-58
2023/05/06 10:18:34;;;;;;;1.38;0.70;;;24.90;70.20;;;25.93;62.42;101057.66;5196634;28;20046;-59
2023/05/06 10:21:16;;;;;;;0.65;0.52;;;24.90;70.70;;;25.87;61.75;101057.78;5199450;28;20129;-59
2023/05/06 10:23:58;;;;;;;1.55;0.75;;;24.90;70.10;;;25.77;61.89;101053.59;5202241;28;20478;-57
2023/05/06 10:26:30;;;;;;;0.95;0.70;;;24.80;70.20;;;25.78;62.74;101058.03;5176186;28;20080;-57
2023/05/06 10:29:05;;;;;;;1.55;0.55;;;24.80;70.90;;;25.84;63.26;101057.88;5195094;28;20077;-58
2023/05/06 10:31:44;;;;;;;1.05;0.70;;;24.90;71.50;;;25.88;62.18;101048.84;5202345;28;20042;-57
2023/05/06 10:34:20;;;;;;;2.45;0.70;;;24.90;70.90;;;25.90;62.04;101049.72;5191982;28;20407;-58